sensor_id;sensor_type;location;lat;lon;timestamp;P1;durP1;ratioP1;P2;durP2;ratioP2
69678;SDS011;56915;52.046;4.854;2022-10-16T00:00:57;3.42;;;1.67;;
69678;SDS011;56915;52.046;4.854;2022-10-16T00:03:24;4.55;;;1.80;;
69678;SDS011;56915;52.046;4.854;2022-10-16T00:05:58;3.83;;;1.50;;
69678;SDS011;56915;52.046;4.854;2022-10-16T00:08:27;7.80;;;1.70;;
69678;SDS011;56915;52.046;4.854;2022-10-16T00:11:01;4.70;;;1.80;;
69678;SDS011;56915;52.046;4.854;2022-10-16T00:13:33;3.45;;;1.67;;
69678;SDS011;56915;52.046;4.854;2022-10-16T00:16:01;5.78;;;1.88;;
69678;SDS011;56915;52.046;4.854;2022-10-16T00:18:29;4.00;;;1.57;;
69678;SDS011;56915;52.046;4.854;2022-10-16T00:21:07;4.68;;;1.75;;
69678;SDS011;56915;52.046;4.854;2022-10-16T00:23:34;3.65;;;1.60;;
69678;SDS011;56915;52.046;4.854;2022-10-16T00:26:03;4.18;;;1.80;;
69678;SDS011;56915;52.046;4.854;2022-10-16T00:28:33;4.68;;;1.70;;
69678;SDS011;56915;52.046;4.854;2022-10-16T00:31:08;4.73;;;1.80;;
69678;SDS011;56915;52.046;4.854;2022-10-16T00:33:37;3.53;;;1.90;;
69678;SDS011;56915;52.046;4.854;2022-10-16T00:36:07;3.42;;;1.80;;
69678;SDS011;56915;52.046;4.854;2022-10-16T00:38:36;4.72;;;1.92;;
69678;SDS011;56915;52.046;4.854;2022-10-16T00:41:04;4.80;;;1.90;;
69678;SDS011;56915;52.046;4.854;2022-10-16T00:43:34;5.10;;;2.00;;
69678;SDS011;56915;52.046;4.854;2022-10-16T00:46:01;3.40;;;1.75;;
69678;SDS011;56915;52.046;4.854;2022-10-16T00:48:30;4.38;;;1.70;;
69678;SDS011;56915;52.046;4.854;2022-10-16T00:50:57;5.55;;;1.80;;
69678;SDS011;56915;52.046;4.854;2022-10-16T00:53:25;3.28;;;2.00;;
69678;SDS011;56915;52.046;4.854;2022-10-16T00:55:53;3.87;;;1.70;;
69678;SDS011;56915;52.046;4.854;2022-10-16T00:58:20;3.85;;;1.70;;
69678;SDS011;56915;52.046;4.854;2022-10-16T01:00:47;3.33;;;2.00;;
69678;SDS011;56915;52.046;4.854;2022-10-16T01:05:51;5.35;;;2.10;;
69678;SDS011;56915;52.046;4.854;2022-10-16T01:12:01;4.18;;;1.95;;
69678;SDS011;56915;52.046;4.854;2022-10-16T01:14:47;2.85;;;1.95;;
69678;SDS011;56915;52.046;4.854;2022-10-16T01:20:30;4.82;;;1.80;;
69678;SDS011;56915;52.046;4.854;2022-10-16T01:26:20;2.60;;;1.60;;
69678;SDS011;56915;52.046;4.854;2022-10-16T01:28:25;3.60;;;1.80;;
69678;SDS011;56915;52.046;4.854;2022-10-16T01:30:59;2.78;;;1.50;;
69678;SDS011;56915;52.046;4.854;2022-10-16T01:33:39;2.78;;;1.70;;
69678;SDS011;56915;52.046;4.854;2022-10-16T01:36:11;3.30;;;1.50;;
69678;SDS011;56915;52.046;4.854;2022-10-16T01:38:41;3.38;;;1.63;;
69678;SDS011;56915;52.046;4.854;2022-10-16T01:41:12;4.93;;;2.03;;
69678;SDS011;56915;52.046;4.854;2022-10-16T01:44:25;5.38;;;1.98;;
69678;SDS011;56915;52.046;4.854;2022-10-16T01:46:47;5.45;;;2.03;;
69678;SDS011;56915;52.046;4.854;2022-10-16T01:49:16;3.90;;;2.17;;
69678;SDS011;56915;52.046;4.854;2022-10-16T01:51:45;5.13;;;2.30;;
69678;SDS011;56915;52.046;4.854;2022-10-16T01:54:16;3.95;;;2.10;;
69678;SDS011;56915;52.046;4.854;2022-10-16T01:56:46;4.95;;;2.10;;
69678;SDS011;56915;52.046;4.854;2022-10-16T01:59:18;4.13;;;2.30;;
69678;SDS011;56915;52.046;4.854;2022-10-16T02:01:48;5.33;;;2.30;;
69678;SDS011;56915;52.046;4.854;2022-10-16T02:04:30;4.30;;;2.40;;
69678;SDS011;56915;52.046;4.854;2022-10-16T02:07:03;5.13;;;2.50;;
69678;SDS011;56915;52.046;4.854;2022-10-16T02:09:32;5.18;;;2.40;;
69678;SDS011;56915;52.046;4.854;2022-10-16T02:12:01;3.63;;;2.70;;
69678;SDS011;56915;52.046;4.854;2022-10-16T02:14:37;6.13;;;2.40;;
69678;SDS011;56915;52.046;4.854;2022-10-16T02:17:10;4.03;;;2.60;;
69678;SDS011;56915;52.046;4.854;2022-10-16T02:19:41;4.75;;;2.80;;
69678;SDS011;56915;52.046;4.854;2022-10-16T02:22:12;4.75;;;2.65;;
69678;SDS011;56915;52.046;4.854;2022-10-16T02:24:57;5.75;;;2.58;;
69678;SDS011;56915;52.046;4.854;2022-10-16T02:27:33;4.83;;;2.60;;
69678;SDS011;56915;52.046;4.854;2022-10-16T02:30:14;5.32;;;2.42;;
69678;SDS011;56915;52.046;4.854;2022-10-16T02:32:53;4.22;;;2.50;;
69678;SDS011;56915;52.046;4.854;2022-10-16T02:35:21;6.47;;;2.58;;
69678;SDS011;56915;52.046;4.854;2022-10-16T02:37:50;7.57;;;2.53;;
69678;SDS011;56915;52.046;4.854;2022-10-16T02:40:18;4.80;;;2.20;;
69678;SDS011;56915;52.046;4.854;2022-10-16T02:42:51;3.83;;;2.38;;
69678;SDS011;56915;52.046;4.854;2022-10-16T02:45:20;4.75;;;2.30;;
69678;SDS011;56915;52.046;4.854;2022-10-16T02:47:48;4.70;;;2.63;;
69678;SDS011;56915;52.046;4.854;2022-10-16T02:50:15;5.38;;;2.40;;
69678;SDS011;56915;52.046;4.854;2022-10-16T02:52:41;5.30;;;2.50;;
69678;SDS011;56915;52.046;4.854;2022-10-16T02:55:08;3.10;;;2.30;;
69678;SDS011;56915;52.046;4.854;2022-10-16T02:57:35;4.70;;;2.40;;
69678;SDS011;56915;52.046;4.854;2022-10-16T03:00:04;6.93;;;2.60;;
69678;SDS011;56915;52.046;4.854;2022-10-16T03:02:31;4.28;;;2.30;;
69678;SDS011;56915;52.046;4.854;2022-10-16T03:04:58;6.33;;;2.50;;
69678;SDS011;56915;52.046;4.854;2022-10-16T03:07:25;4.32;;;2.42;;
69678;SDS011;56915;52.046;4.854;2022-10-16T03:09:53;4.70;;;2.35;;
69678;SDS011;56915;52.046;4.854;2022-10-16T03:12:20;5.55;;;2.63;;
69678;SDS011;56915;52.046;4.854;2022-10-16T03:14:47;5.13;;;2.60;;
69678;SDS011;56915;52.046;4.854;2022-10-16T03:17:14;4.80;;;2.33;;
69678;SDS011;56915;52.046;4.854;2022-10-16T03:19:43;4.28;;;2.28;;
69678;SDS011;56915;52.046;4.854;2022-10-16T03:22:10;6.60;;;2.60;;
69678;SDS011;56915;52.046;4.854;2022-10-16T03:24:37;5.25;;;2.47;;
69678;SDS011;56915;52.046;4.854;2022-10-16T03:27:03;4.05;;;2.55;;
69678;SDS011;56915;52.046;4.854;2022-10-16T03:29:30;4.97;;;2.40;;
69678;SDS011;56915;52.046;4.854;2022-10-16T03:31:58;2.80;;;2.20;;
69678;SDS011;56915;52.046;4.854;2022-10-16T03:34:25;3.67;;;2.42;;
69678;SDS011;56915;52.046;4.854;2022-10-16T03:36:52;5.35;;;2.35;;
69678;SDS011;56915;52.046;4.854;2022-10-16T03:39:19;4.63;;;2.20;;
69678;SDS011;56915;52.046;4.854;2022-10-16T03:41:46;4.10;;;2.13;;
69678;SDS011;56915;52.046;4.854;2022-10-16T03:44:13;3.45;;;2.20;;
69678;SDS011;56915;52.046;4.854;2022-10-16T03:46:40;4.85;;;2.30;;
69678;SDS011;56915;52.046;4.854;2022-10-16T03:49:07;4.15;;;2.30;;
69678;SDS011;56915;52.046;4.854;2022-10-16T03:51:35;3.25;;;2.20;;
69678;SDS011;56915;52.046;4.854;2022-10-16T03:54:02;3.90;;;2.13;;
69678;SDS011;56915;52.046;4.854;2022-10-16T03:56:29;6.15;;;2.33;;
69678;SDS011;56915;52.046;4.854;2022-10-16T03:58:56;3.10;;;2.20;;
69678;SDS011;56915;52.046;4.854;2022-10-16T04:01:22;2.95;;;1.90;;
69678;SDS011;56915;52.046;4.854;2022-10-16T04:03:49;2.95;;;2.00;;
69678;SDS011;56915;52.046;4.854;2022-10-16T04:06:16;4.50;;;2.10;;
69678;SDS011;56915;52.046;4.854;2022-10-16T04:08:43;4.32;;;2.13;;
69678;SDS011;56915;52.046;4.854;2022-10-16T04:11:10;4.32;;;2.03;;
69678;SDS011;56915;52.046;4.854;2022-10-16T04:13:37;3.67;;;2.00;;
69678;SDS011;56915;52.046;4.854;2022-10-16T04:16:04;3.58;;;2.20;;
69678;SDS011;56915;52.046;4.854;2022-10-16T04:18:31;4.17;;;1.80;;
69678;SDS011;56915;52.046;4.854;2022-10-16T04:21:07;4.78;;;1.70;;
69678;SDS011;56915;52.046;4.854;2022-10-16T04:23:34;3.63;;;1.90;;
69678;SDS011;56915;52.046;4.854;2022-10-16T04:26:01;2.65;;;1.60;;
69678;SDS011;56915;52.046;4.854;2022-10-16T04:28:28;2.78;;;1.60;;
69678;SDS011;56915;52.046;4.854;2022-10-16T04:30:55;3.67;;;1.63;;
69678;SDS011;56915;52.046;4.854;2022-10-16T04:33:22;4.10;;;1.83;;
69678;SDS011;56915;52.046;4.854;2022-10-16T04:35:55;4.35;;;1.88;;
69678;SDS011;56915;52.046;4.854;2022-10-16T04:38:22;3.88;;;2.10;;
69678;SDS011;56915;52.046;4.854;2022-10-16T04:40:49;4.63;;;1.77;;
69678;SDS011;56915;52.046;4.854;2022-10-16T04:43:16;2.50;;;1.80;;
69678;SDS011;56915;52.046;4.854;2022-10-16T04:45:44;2.50;;;1.77;;
69678;SDS011;56915;52.046;4.854;2022-10-16T04:48:10;6.63;;;2.10;;
69678;SDS011;56915;52.046;4.854;2022-10-16T04:50:37;5.57;;;1.85;;
69678;SDS011;56915;52.046;4.854;2022-10-16T04:53:04;3.42;;;1.90;;
69678;SDS011;56915;52.046;4.854;2022-10-16T04:55:32;2.73;;;1.63;;
69678;SDS011;56915;52.046;4.854;2022-10-16T04:57:59;4.03;;;1.70;;
69678;SDS011;56915;52.046;4.854;2022-10-16T05:00:26;4.63;;;1.77;;
69678;SDS011;56915;52.046;4.854;2022-10-16T05:02:53;3.55;;;1.92;;
69678;SDS011;56915;52.046;4.854;2022-10-16T05:05:20;3.17;;;1.80;;
69678;SDS011;56915;52.046;4.854;2022-10-16T05:07:47;5.70;;;1.90;;
69678;SDS011;56915;52.046;4.854;2022-10-16T05:10:15;3.28;;;1.90;;
69678;SDS011;56915;52.046;4.854;2022-10-16T05:12:43;3.10;;;1.80;;
69678;SDS011;56915;52.046;4.854;2022-10-16T05:15:10;1.98;;;1.48;;
69678;SDS011;56915;52.046;4.854;2022-10-16T05:17:37;2.67;;;1.58;;
69678;SDS011;56915;52.046;4.854;2022-10-16T05:20:10;5.33;;;1.57;;
69678;SDS011;56915;52.046;4.854;2022-10-16T05:22:37;2.45;;;1.58;;
69678;SDS011;56915;52.046;4.854;2022-10-16T05:25:04;2.83;;;1.70;;
69678;SDS011;56915;52.046;4.854;2022-10-16T05:27:31;2.75;;;1.70;;
69678;SDS011;56915;52.046;4.854;2022-10-16T05:29:58;5.00;;;1.77;;
69678;SDS011;56915;52.046;4.854;2022-10-16T05:32:25;5.00;;;1.63;;
69678;SDS011;56915;52.046;4.854;2022-10-16T05:34:52;4.13;;;1.80;;
69678;SDS011;56915;52.046;4.854;2022-10-16T05:37:18;4.40;;;1.95;;
69678;SDS011;56915;52.046;4.854;2022-10-16T05:39:45;3.55;;;1.60;;
69678;SDS011;56915;52.046;4.854;2022-10-16T05:42:12;3.97;;;1.70;;
69678;SDS011;56915;52.046;4.854;2022-10-16T05:44:39;4.23;;;1.80;;
69678;SDS011;56915;52.046;4.854;2022-10-16T05:47:05;4.20;;;1.83;;
69678;SDS011;56915;52.046;4.854;2022-10-16T05:49:32;4.00;;;1.60;;
69678;SDS011;56915;52.046;4.854;2022-10-16T05:52:05;5.57;;;1.80;;
69678;SDS011;56915;52.046;4.854;2022-10-16T05:54:32;3.15;;;1.77;;
69678;SDS011;56915;52.046;4.854;2022-10-16T05:56:59;3.37;;;1.70;;
69678;SDS011;56915;52.046;4.854;2022-10-16T05:59:26;5.63;;;1.90;;
69678;SDS011;56915;52.046;4.854;2022-10-16T06:01:53;5.18;;;2.00;;
69678;SDS011;56915;52.046;4.854;2022-10-16T06:04:19;3.70;;;1.80;;
69678;SDS011;56915;52.046;4.854;2022-10-16T06:06:46;3.55;;;1.77;;
69678;SDS011;56915;52.046;4.854;2022-10-16T06:09:13;3.10;;;1.70;;
69678;SDS011;56915;52.046;4.854;2022-10-16T06:11:40;4.88;;;1.80;;
69678;SDS011;56915;52.046;4.854;2022-10-16T06:14:08;3.75;;;1.70;;
69678;SDS011;56915;52.046;4.854;2022-10-16T06:16:35;4.63;;;1.80;;
69678;SDS011;56915;52.046;4.854;2022-10-16T06:19:03;6.10;;;1.88;;
69678;SDS011;56915;52.046;4.854;2022-10-16T06:21:32;4.80;;;1.70;;
69678;SDS011;56915;52.046;4.854;2022-10-16T06:23:59;6.18;;;1.73;;
69678;SDS011;56915;52.046;4.854;2022-10-16T06:26:27;3.72;;;1.80;;
69678;SDS011;56915;52.046;4.854;2022-10-16T06:28:57;3.97;;;1.90;;
69678;SDS011;56915;52.046;4.854;2022-10-16T06:31:25;5.93;;;1.88;;
69678;SDS011;56915;52.046;4.854;2022-10-16T06:33:56;3.30;;;1.37;;
69678;SDS011;56915;52.046;4.854;2022-10-16T06:36:24;5.28;;;1.40;;
69678;SDS011;56915;52.046;4.854;2022-10-16T06:38:51;2.40;;;1.20;;
69678;SDS011;56915;52.046;4.854;2022-10-16T06:41:19;3.55;;;0.95;;
69678;SDS011;56915;52.046;4.854;2022-10-16T06:43:47;3.88;;;0.90;;
69678;SDS011;56915;52.046;4.854;2022-10-16T06:46:15;4.17;;;0.87;;
69678;SDS011;56915;52.046;4.854;2022-10-16T06:48:44;4.32;;;1.02;;
69678;SDS011;56915;52.046;4.854;2022-10-16T06:51:15;3.75;;;0.70;;
69678;SDS011;56915;52.046;4.854;2022-10-16T06:53:48;2.42;;;0.85;;
69678;SDS011;56915;52.046;4.854;2022-10-16T06:56:31;1.42;;;0.70;;
69678;SDS011;56915;52.046;4.854;2022-10-16T06:58:59;3.70;;;0.60;;
69678;SDS011;56915;52.046;4.854;2022-10-16T07:01:27;1.98;;;0.85;;
69678;SDS011;56915;52.046;4.854;2022-10-16T07:03:54;2.58;;;0.80;;
69678;SDS011;56915;52.046;4.854;2022-10-16T07:06:22;5.25;;;0.90;;
69678;SDS011;56915;52.046;4.854;2022-10-16T07:08:50;4.80;;;1.00;;
69678;SDS011;56915;52.046;4.854;2022-10-16T07:11:19;3.93;;;1.00;;
69678;SDS011;56915;52.046;4.854;2022-10-16T07:13:48;2.53;;;1.05;;
69678;SDS011;56915;52.046;4.854;2022-10-16T07:16:22;3.70;;;2.00;;
69678;SDS011;56915;52.046;4.854;2022-10-16T07:18:51;4.18;;;1.70;;
69678;SDS011;56915;52.046;4.854;2022-10-16T07:21:25;3.33;;;1.70;;
69678;SDS011;56915;52.046;4.854;2022-10-16T07:23:56;4.67;;;1.20;;
69678;SDS011;56915;52.046;4.854;2022-10-16T07:26:28;5.07;;;1.45;;
69678;SDS011;56915;52.046;4.854;2022-10-16T07:28:56;2.25;;;1.35;;
69678;SDS011;56915;52.046;4.854;2022-10-16T07:31:23;4.18;;;1.67;;
69678;SDS011;56915;52.046;4.854;2022-10-16T07:33:51;3.63;;;1.70;;
69678;SDS011;56915;52.046;4.854;2022-10-16T07:36:18;3.17;;;1.53;;
69678;SDS011;56915;52.046;4.854;2022-10-16T07:38:46;4.70;;;1.60;;
69678;SDS011;56915;52.046;4.854;2022-10-16T07:41:15;2.90;;;1.42;;
69678;SDS011;56915;52.046;4.854;2022-10-16T07:43:51;6.25;;;1.55;;
69678;SDS011;56915;52.046;4.854;2022-10-16T07:46:20;3.20;;;1.60;;
69678;SDS011;56915;52.046;4.854;2022-10-16T07:48:48;6.30;;;1.70;;
69678;SDS011;56915;52.046;4.854;2022-10-16T07:51:16;6.43;;;1.70;;
69678;SDS011;56915;52.046;4.854;2022-10-16T07:53:44;5.70;;;1.60;;
69678;SDS011;56915;52.046;4.854;2022-10-16T07:56:11;4.13;;;1.75;;
69678;SDS011;56915;52.046;4.854;2022-10-16T07:58:39;5.85;;;1.60;;
69678;SDS011;56915;52.046;4.854;2022-10-16T08:01:10;3.83;;;1.70;;
69678;SDS011;56915;52.046;4.854;2022-10-16T08:03:42;4.28;;;1.80;;
69678;SDS011;56915;52.046;4.854;2022-10-16T08:06:12;5.93;;;1.88;;
69678;SDS011;56915;52.046;4.854;2022-10-16T08:08:39;4.68;;;1.67;;
69678;SDS011;56915;52.046;4.854;2022-10-16T08:11:06;2.83;;;1.45;;
69678;SDS011;56915;52.046;4.854;2022-10-16T08:13:34;4.77;;;1.60;;
69678;SDS011;56915;52.046;4.854;2022-10-16T08:16:01;3.97;;;1.45;;
69678;SDS011;56915;52.046;4.854;2022-10-16T08:18:29;4.57;;;1.50;;
69678;SDS011;56915;52.046;4.854;2022-10-16T08:20:57;3.30;;;1.30;;
69678;SDS011;56915;52.046;4.854;2022-10-16T08:23:25;4.78;;;1.70;;
69678;SDS011;56915;52.046;4.854;2022-10-16T08:25:56;4.50;;;1.20;;
69678;SDS011;56915;52.046;4.854;2022-10-16T08:28:28;3.55;;;1.30;;
69678;SDS011;56915;52.046;4.854;2022-10-16T08:30:55;7.32;;;1.23;;
69678;SDS011;56915;52.046;4.854;2022-10-16T08:33:23;5.57;;;1.20;;
69678;SDS011;56915;52.046;4.854;2022-10-16T08:35:50;3.00;;;1.08;;
69678;SDS011;56915;52.046;4.854;2022-10-16T08:38:20;5.20;;;1.17;;
69678;SDS011;56915;52.046;4.854;2022-10-16T08:40:47;6.80;;;1.40;;
69678;SDS011;56915;52.046;4.854;2022-10-16T08:43:26;3.88;;;1.20;;
69678;SDS011;56915;52.046;4.854;2022-10-16T08:51:19;5.87;;;1.00;;
69678;SDS011;56915;52.046;4.854;2022-10-16T08:56:24;5.45;;;1.45;;
69678;SDS011;56915;52.046;4.854;2022-10-16T08:58:52;2.10;;;1.00;;
69678;SDS011;56915;52.046;4.854;2022-10-16T09:01:49;5.32;;;1.08;;
69678;SDS011;56915;52.046;4.854;2022-10-16T09:23:28;4.88;;;1.45;;
69678;SDS011;56915;52.046;4.854;2022-10-16T09:25:57;8.93;;;1.40;;
69678;SDS011;56915;52.046;4.854;2022-10-16T09:28:25;5.25;;;1.23;;
69678;SDS011;56915;52.046;4.854;2022-10-16T09:30:52;6.90;;;1.77;;
69678;SDS011;56915;52.046;4.854;2022-10-16T09:33:21;7.82;;;1.38;;
69678;SDS011;56915;52.046;4.854;2022-10-16T09:35:55;8.00;;;1.40;;
69678;SDS011;56915;52.046;4.854;2022-10-16T09:40:51;7.93;;;1.40;;
69678;SDS011;56915;52.046;4.854;2022-10-16T09:43:39;9.73;;;1.77;;
69678;SDS011;56915;52.046;4.854;2022-10-16T09:46:31;4.78;;;1.55;;
69678;SDS011;56915;52.046;4.854;2022-10-16T09:49:00;4.22;;;1.50;;
69678;SDS011;56915;52.046;4.854;2022-10-16T09:51:32;5.45;;;1.65;;
69678;SDS011;56915;52.046;4.854;2022-10-16T09:56:35;4.93;;;1.53;;
69678;SDS011;56915;52.046;4.854;2022-10-16T09:59:15;4.28;;;1.50;;
69678;SDS011;56915;52.046;4.854;2022-10-16T10:01:50;4.78;;;1.50;;
69678;SDS011;56915;52.046;4.854;2022-10-16T10:04:19;8.30;;;1.73;;
69678;SDS011;56915;52.046;4.854;2022-10-16T10:06:56;6.45;;;1.67;;
69678;SDS011;56915;52.046;4.854;2022-10-16T10:09:24;8.70;;;1.70;;
69678;SDS011;56915;52.046;4.854;2022-10-16T10:11:59;7.50;;;1.90;;
69678;SDS011;56915;52.046;4.854;2022-10-16T10:14:43;6.03;;;1.70;;
69678;SDS011;56915;52.046;4.854;2022-10-16T10:17:14;7.78;;;1.77;;
69678;SDS011;56915;52.046;4.854;2022-10-16T10:20:44;6.22;;;1.70;;
69678;SDS011;56915;52.046;4.854;2022-10-16T10:22:47;7.97;;;1.90;;
69678;SDS011;56915;52.046;4.854;2022-10-16T10:25:29;7.65;;;1.50;;
69678;SDS011;56915;52.046;4.854;2022-10-16T10:39:15;6.50;;;1.40;;
69678;SDS011;56915;52.046;4.854;2022-10-16T10:47:58;7.70;;;1.58;;
69678;SDS011;56915;52.046;4.854;2022-10-16T10:50:39;4.63;;;1.40;;
69678;SDS011;56915;52.046;4.854;2022-10-16T10:53:18;9.23;;;1.55;;
69678;SDS011;56915;52.046;4.854;2022-10-16T10:55:59;5.13;;;1.40;;
69678;SDS011;56915;52.046;4.854;2022-10-16T11:04:44;6.67;;;1.40;;
69678;SDS011;56915;52.046;4.854;2022-10-16T11:07:27;9.93;;;1.40;;
69678;SDS011;56915;52.046;4.854;2022-10-16T11:10:01;8.18;;;1.52;;
69678;SDS011;56915;52.046;4.854;2022-10-16T11:12:38;4.72;;;1.40;;
69678;SDS011;56915;52.046;4.854;2022-10-16T11:15:13;7.30;;;1.73;;
69678;SDS011;56915;52.046;4.854;2022-10-16T11:20:31;6.13;;;1.27;;
69678;SDS011;56915;52.046;4.854;2022-10-16T11:25:41;5.53;;;1.27;;
69678;SDS011;56915;52.046;4.854;2022-10-16T11:28:11;8.77;;;1.20;;
69678;SDS011;56915;52.046;4.854;2022-10-16T11:30:47;4.97;;;1.10;;
69678;SDS011;56915;52.046;4.854;2022-10-16T11:39:04;6.82;;;1.20;;
69678;SDS011;56915;52.046;4.854;2022-10-16T11:41:53;8.45;;;1.05;;
69678;SDS011;56915;52.046;4.854;2022-10-16T11:44:49;9.00;;;1.20;;
69678;SDS011;56915;52.046;4.854;2022-10-16T11:50:40;4.45;;;1.17;;
69678;SDS011;56915;52.046;4.854;2022-10-16T11:53:21;6.15;;;1.10;;
69678;SDS011;56915;52.046;4.854;2022-10-16T11:55:50;8.90;;;0.90;;
69678;SDS011;56915;52.046;4.854;2022-10-16T12:03:45;8.63;;;1.20;;
69678;SDS011;56915;52.046;4.854;2022-10-16T12:09:09;8.77;;;1.02;;
69678;SDS011;56915;52.046;4.854;2022-10-16T12:11:56;5.73;;;0.90;;
69678;SDS011;56915;52.046;4.854;2022-10-16T12:17:34;5.13;;;0.90;;
69678;SDS011;56915;52.046;4.854;2022-10-16T12:22:53;6.22;;;1.13;;
69678;SDS011;56915;52.046;4.854;2022-10-16T12:27:56;6.07;;;1.10;;
69678;SDS011;56915;52.046;4.854;2022-10-16T12:30:29;6.45;;;0.90;;
69678;SDS011;56915;52.046;4.854;2022-10-16T12:33:02;10.27;;;1.08;;
69678;SDS011;56915;52.046;4.854;2022-10-16T12:35:32;5.00;;;0.95;;
69678;SDS011;56915;52.046;4.854;2022-10-16T12:38:05;7.13;;;1.10;;
69678;SDS011;56915;52.046;4.854;2022-10-16T12:40:44;4.68;;;0.90;;
69678;SDS011;56915;52.046;4.854;2022-10-16T12:48:37;9.82;;;1.10;;
69678;SDS011;56915;52.046;4.854;2022-10-16T12:54:02;4.70;;;0.95;;
69678;SDS011;56915;52.046;4.854;2022-10-16T12:56:39;4.20;;;1.02;;
69678;SDS011;56915;52.046;4.854;2022-10-16T13:01:58;7.22;;;1.00;;
69678;SDS011;56915;52.046;4.854;2022-10-16T13:07:44;6.45;;;1.00;;
69678;SDS011;56915;52.046;4.854;2022-10-16T13:18:28;9.90;;;1.13;;
69678;SDS011;56915;52.046;4.854;2022-10-16T13:21:31;5.68;;;0.90;;
69678;SDS011;56915;52.046;4.854;2022-10-16T13:24:23;5.03;;;0.90;;
69678;SDS011;56915;52.046;4.854;2022-10-16T13:29:54;5.63;;;0.93;;
69678;SDS011;56915;52.046;4.854;2022-10-16T13:32:28;4.80;;;0.90;;
69678;SDS011;56915;52.046;4.854;2022-10-16T13:34:55;5.90;;;1.02;;
69678;SDS011;56915;52.046;4.854;2022-10-16T13:37:23;7.15;;;1.00;;
69678;SDS011;56915;52.046;4.854;2022-10-16T13:39:51;5.80;;;1.02;;
69678;SDS011;56915;52.046;4.854;2022-10-16T13:42:38;7.43;;;1.15;;
69678;SDS011;56915;52.046;4.854;2022-10-16T13:45:05;6.73;;;1.10;;
69678;SDS011;56915;52.046;4.854;2022-10-16T13:47:43;3.25;;;1.13;;
69678;SDS011;56915;52.046;4.854;2022-10-16T13:50:14;11.35;;;1.33;;
69678;SDS011;56915;52.046;4.854;2022-10-16T13:52:43;7.68;;;0.93;;
69678;SDS011;56915;52.046;4.854;2022-10-16T13:55:15;7.15;;;1.20;;
69678;SDS011;56915;52.046;4.854;2022-10-16T13:57:43;5.53;;;1.07;;
69678;SDS011;56915;52.046;4.854;2022-10-16T14:00:18;7.18;;;0.93;;
69678;SDS011;56915;52.046;4.854;2022-10-16T14:03:07;4.82;;;1.48;;
69678;SDS011;56915;52.046;4.854;2022-10-16T14:05:43;9.90;;;1.15;;
69678;SDS011;56915;52.046;4.854;2022-10-16T14:08:15;7.15;;;1.38;;
69678;SDS011;56915;52.046;4.854;2022-10-16T14:10:43;8.93;;;1.33;;
69678;SDS011;56915;52.046;4.854;2022-10-16T14:13:19;6.10;;;1.13;;
69678;SDS011;56915;52.046;4.854;2022-10-16T14:15:51;8.27;;;1.10;;
69678;SDS011;56915;52.046;4.854;2022-10-16T14:18:21;9.23;;;1.15;;
69678;SDS011;56915;52.046;4.854;2022-10-16T14:20:50;7.05;;;1.23;;
69678;SDS011;56915;52.046;4.854;2022-10-16T14:25:49;8.73;;;1.17;;
69678;SDS011;56915;52.046;4.854;2022-10-16T14:28:17;9.43;;;1.20;;
69678;SDS011;56915;52.046;4.854;2022-10-16T14:30:49;4.03;;;0.90;;
69678;SDS011;56915;52.046;4.854;2022-10-16T14:33:31;3.95;;;0.90;;
69678;SDS011;56915;52.046;4.854;2022-10-16T14:36:01;8.00;;;1.30;;
69678;SDS011;56915;52.046;4.854;2022-10-16T14:38:49;6.38;;;1.17;;
69678;SDS011;56915;52.046;4.854;2022-10-16T14:41:31;6.15;;;1.20;;
69678;SDS011;56915;52.046;4.854;2022-10-16T14:44:09;6.18;;;1.00;;
69678;SDS011;56915;52.046;4.854;2022-10-16T14:46:38;5.72;;;1.25;;
69678;SDS011;56915;52.046;4.854;2022-10-16T14:51:38;6.75;;;1.33;;
69678;SDS011;56915;52.046;4.854;2022-10-16T14:54:11;6.60;;;1.20;;
69678;SDS011;56915;52.046;4.854;2022-10-16T14:59:37;7.32;;;1.30;;
69678;SDS011;56915;52.046;4.854;2022-10-16T15:02:13;8.47;;;1.37;;
69678;SDS011;56915;52.046;4.854;2022-10-16T15:04:48;8.98;;;1.38;;
69678;SDS011;56915;52.046;4.854;2022-10-16T15:07:15;6.35;;;1.10;;
69678;SDS011;56915;52.046;4.854;2022-10-16T15:09:42;8.73;;;1.40;;
69678;SDS011;56915;52.046;4.854;2022-10-16T15:12:14;6.18;;;1.05;;
69678;SDS011;56915;52.046;4.854;2022-10-16T15:14:41;10.07;;;1.53;;
69678;SDS011;56915;52.046;4.854;2022-10-16T15:17:11;8.68;;;1.20;;
69678;SDS011;56915;52.046;4.854;2022-10-16T15:19:41;6.55;;;1.13;;
69678;SDS011;56915;52.046;4.854;2022-10-16T15:22:09;6.43;;;1.17;;
69678;SDS011;56915;52.046;4.854;2022-10-16T15:24:38;9.68;;;1.13;;
69678;SDS011;56915;52.046;4.854;2022-10-16T15:27:05;6.67;;;1.00;;
69678;SDS011;56915;52.046;4.854;2022-10-16T15:29:32;9.68;;;1.20;;
69678;SDS011;56915;52.046;4.854;2022-10-16T15:32:00;5.57;;;1.10;;
69678;SDS011;56915;52.046;4.854;2022-10-16T15:34:27;6.07;;;1.15;;
69678;SDS011;56915;52.046;4.854;2022-10-16T15:36:54;9.57;;;1.38;;
69678;SDS011;56915;52.046;4.854;2022-10-16T15:39:22;7.00;;;1.17;;
69678;SDS011;56915;52.046;4.854;2022-10-16T15:41:49;8.45;;;1.05;;
69678;SDS011;56915;52.046;4.854;2022-10-16T15:44:20;6.20;;;1.17;;
69678;SDS011;56915;52.046;4.854;2022-10-16T15:46:49;6.85;;;1.15;;
69678;SDS011;56915;52.046;4.854;2022-10-16T15:49:15;6.55;;;1.60;;
69678;SDS011;56915;52.046;4.854;2022-10-16T15:51:42;6.63;;;1.53;;
69678;SDS011;56915;52.046;4.854;2022-10-16T15:54:09;8.55;;;1.50;;
69678;SDS011;56915;52.046;4.854;2022-10-16T15:56:36;6.38;;;0.95;;
69678;SDS011;56915;52.046;4.854;2022-10-16T15:59:03;8.55;;;1.55;;
69678;SDS011;56915;52.046;4.854;2022-10-16T16:01:34;6.40;;;1.30;;
69678;SDS011;56915;52.046;4.854;2022-10-16T16:04:01;8.73;;;1.70;;
69678;SDS011;56915;52.046;4.854;2022-10-16T16:06:45;6.50;;;1.60;;
69678;SDS011;56915;52.046;4.854;2022-10-16T16:09:13;8.82;;;1.75;;
69678;SDS011;56915;52.046;4.854;2022-10-16T16:11:40;8.95;;;2.20;;
69678;SDS011;56915;52.046;4.854;2022-10-16T16:14:12;8.00;;;1.85;;
69678;SDS011;56915;52.046;4.854;2022-10-16T16:16:40;9.80;;;1.93;;
69678;SDS011;56915;52.046;4.854;2022-10-16T16:19:08;7.47;;;1.92;;
69678;SDS011;56915;52.046;4.854;2022-10-16T16:21:37;9.00;;;1.98;;
69678;SDS011;56915;52.046;4.854;2022-10-16T16:24:04;10.55;;;2.47;;
69678;SDS011;56915;52.046;4.854;2022-10-16T16:26:34;7.05;;;2.30;;
69678;SDS011;56915;52.046;4.854;2022-10-16T16:29:04;8.67;;;2.90;;
69678;SDS011;56915;52.046;4.854;2022-10-16T16:31:31;10.80;;;2.47;;
69678;SDS011;56915;52.046;4.854;2022-10-16T16:33:59;9.43;;;2.33;;
69678;SDS011;56915;52.046;4.854;2022-10-16T16:36:26;8.85;;;2.30;;
69678;SDS011;56915;52.046;4.854;2022-10-16T16:38:53;10.35;;;2.70;;
69678;SDS011;56915;52.046;4.854;2022-10-16T16:41:22;9.83;;;3.67;;
69678;SDS011;56915;52.046;4.854;2022-10-16T16:43:52;12.98;;;6.40;;
69678;SDS011;56915;52.046;4.854;2022-10-16T16:46:20;14.75;;;6.00;;
69678;SDS011;56915;52.046;4.854;2022-10-16T16:48:48;14.02;;;7.25;;
69678;SDS011;56915;52.046;4.854;2022-10-16T16:51:19;11.18;;;3.72;;
69678;SDS011;56915;52.046;4.854;2022-10-16T16:53:47;12.00;;;2.63;;
69678;SDS011;56915;52.046;4.854;2022-10-16T16:56:16;7.63;;;2.50;;
69678;SDS011;56915;52.046;4.854;2022-10-16T16:58:47;9.75;;;2.20;;
69678;SDS011;56915;52.046;4.854;2022-10-16T17:01:15;11.18;;;2.42;;
69678;SDS011;56915;52.046;4.854;2022-10-16T17:03:46;9.60;;;3.25;;
69678;SDS011;56915;52.046;4.854;2022-10-16T17:06:16;12.83;;;4.33;;
69678;SDS011;56915;52.046;4.854;2022-10-16T17:08:46;15.35;;;3.90;;
69678;SDS011;56915;52.046;4.854;2022-10-16T17:11:14;12.50;;;4.68;;
69678;SDS011;56915;52.046;4.854;2022-10-16T17:13:43;17.13;;;6.50;;
69678;SDS011;56915;52.046;4.854;2022-10-16T17:16:11;18.55;;;7.82;;
69678;SDS011;56915;52.046;4.854;2022-10-16T17:18:38;11.33;;;4.20;;
69678;SDS011;56915;52.046;4.854;2022-10-16T17:21:08;30.23;;;15.32;;